Terminal Aerodrome Forecast
Issued by NWS

Home | Current Version | Previous Version | Text Only | Print | Product List | Glossary On
Versions: 1 2 3 4 5 6 7 8 9 10 11 12 13 14 15 16 17 18
000
FTUS43 KEAX 272320
TAFSTJ
TAF
KSTJ 272320Z 2800/2824 15003KT P6SM SKC
     FM280800 00000KT 5SM BR SKC
      TEMPO 2810/2812 2SM BR SCT008
     FM281400 15006KT P6SM SCT050=

USA.gov is the U.S. government's official web portal to all federal, state and local government web resources and services.